createdAt,value
2018-11-28T00:02:28.365Z,81.99
2018-11-28T00:05:01.823Z,82.17
2018-11-28T00:07:38.075Z,82.23
2018-11-28T00:10:14.123Z,82.30
2018-11-28T00:12:47.033Z,82.40
2018-11-28T00:15:19.982Z,82.60
2018-11-28T00:17:53.213Z,82.76
2018-11-28T00:20:26.461Z,82.62
2018-11-28T00:23:00.836Z,82.49
2018-11-28T00:25:34.053Z,82.76
2018-11-28T00:28:07.472Z,82.49
2018-11-28T00:30:40.852Z,82.45
2018-11-28T00:33:14.252Z,82.60
2018-11-28T00:35:47.005Z,82.72
2018-11-28T00:38:20.126Z,82.49
2018-11-28T00:40:54.951Z,82.42
2018-11-28T00:43:27.785Z,82.43
2018-11-28T00:46:00.544Z,82.52
2018-11-28T00:48:35.534Z,82.76
2018-11-28T00:51:09.173Z,82.76
2018-11-28T00:53:42.777Z,82.65
2018-11-28T00:56:17.396Z,82.83
2018-11-28T00:58:50.790Z,83.03
2018-11-28T01:01:24.900Z,83.21
2018-11-28T01:03:59.116Z,83.27
2018-11-28T01:06:31.851Z,83.30
2018-11-28T01:09:06.713Z,83.39
2018-11-28T01:11:43.969Z,83.43
2018-11-28T01:14:16.900Z,83.45
2018-11-28T01:16:50.263Z,83.48
2018-11-28T01:19:24.289Z,83.53
2018-11-28T01:21:57.145Z,83.38
2018-11-28T01:24:30.854Z,83.31
2018-11-28T01:27:04.191Z,83.18
2018-11-28T01:29:36.975Z,82.94
2018-11-28T01:32:12.518Z,82.81
2018-11-28T01:34:45.550Z,82.85
2018-11-28T01:37:19.662Z,82.82
2018-11-28T01:39:52.565Z,82.78
2018-11-28T01:42:25.749Z,82.84
2018-11-28T01:45:00.542Z,82.90
2018-11-28T01:47:34.719Z,82.83
2018-11-28T01:50:12.627Z,82.99
2018-11-28T01:52:45.496Z,82.96
2018-11-28T01:55:20.450Z,82.83
2018-11-28T01:57:54.585Z,82.75
2018-11-28T02:00:27.883Z,82.54
2018-11-28T02:03:02.270Z,82.52
2018-11-28T02:05:35.570Z,82.43
2018-11-28T02:08:08.322Z,82.47
2018-11-28T02:10:41.137Z,82.54
2018-11-28T02:13:14.476Z,82.54
2018-11-28T02:15:47.311Z,82.58
2018-11-28T02:18:20.046Z,82.29
2018-11-28T02:20:53.727Z,82.12
2018-11-28T02:23:26.493Z,82.14
2018-11-28T02:25:59.521Z,82.23
2018-11-28T02:28:36.323Z,82.23
2018-11-28T02:31:09.332Z,82.32
2018-11-28T02:33:42.113Z,82.32
2018-11-28T02:36:15.452Z,82.35
2018-11-28T02:38:48.326Z,82.51
2018-11-28T02:41:21.848Z,82.70
2018-11-28T02:43:55.262Z,82.88
2018-11-28T02:46:32.547Z,82.94
2018-11-28T02:49:05.461Z,82.94
2018-11-28T02:51:38.704Z,83.15
2018-11-28T02:54:11.938Z,83.27
2018-11-28T02:56:44.842Z,83.70
2018-11-28T02:59:18.138Z,83.78
2018-11-28T03:01:51.572Z,83.99
2018-11-28T03:04:24.748Z,84.15
2018-11-28T03:06:58.182Z,84.03
2018-11-28T03:09:31.489Z,83.98
2018-11-28T03:12:04.402Z,84.09
2018-11-28T03:14:38.188Z,84.06
2018-11-28T03:17:17.129Z,84.10
2018-11-28T03:19:50.130Z,84.20
2018-11-28T03:22:23.451Z,84.34
2018-11-28T03:24:59.111Z,84.46
2018-11-28T03:27:31.896Z,84.51
2018-11-28T03:30:23.410Z,84.63
2018-11-28T03:32:56.629Z,84.47
2018-11-28T03:35:29.574Z,84.59
2018-11-28T03:38:02.905Z,84.68
2018-11-28T03:40:35.678Z,84.66
2018-11-28T03:43:08.876Z,84.65
2018-11-28T03:45:42.309Z,84.68
2018-11-28T03:48:20.901Z,84.67
2018-11-28T03:50:53.744Z,84.75
2018-11-28T03:53:27.145Z,84.71
2018-11-28T03:55:59.911Z,84.72
2018-11-28T03:58:32.787Z,84.61
2018-11-28T04:01:06.326Z,84.48
2018-11-28T04:03:39.146Z,84.55
2018-11-28T04:06:11.854Z,84.65
2018-11-28T04:08:45.266Z,84.37
2018-11-28T04:11:18.023Z,84.22
2018-11-28T04:13:50.844Z,84.19
2018-11-28T04:16:23.935Z,84.10
2018-11-28T04:18:56.742Z,84.13
2018-11-28T04:21:29.507Z,84.10
2018-11-28T04:24:03.960Z,84.05
2018-11-28T04:26:36.710Z,84.08
2018-11-28T04:29:09.721Z,83.96
2018-11-28T04:31:43.054Z,83.80
2018-11-28T04:34:15.921Z,83.74
2018-11-28T04:36:48.671Z,83.64
2018-11-28T04:39:24.077Z,83.53
2018-11-28T04:41:57.489Z,83.52
2018-11-28T04:44:31.921Z,83.49
2018-11-28T04:47:04.907Z,83.58
2018-11-28T04:49:37.714Z,83.57
2018-11-28T04:52:11.401Z,83.51
2018-11-28T04:54:44.299Z,83.54
2018-11-28T04:57:17.050Z,83.57
2018-11-28T04:59:50.435Z,83.50
2018-11-28T05:02:23.224Z,83.30
2018-11-28T05:04:56.035Z,83.23
2018-11-28T05:07:31.240Z,83.26
2018-11-28T05:10:06.710Z,83.28
2018-11-28T05:12:39.597Z,83.29
2018-11-28T05:15:22.790Z,83.24
2018-11-28T05:17:55.931Z,83.24
2018-11-28T05:20:31.751Z,83.36
2018-11-28T05:23:07.045Z,83.41
2018-11-28T05:25:40.541Z,83.39
2018-11-28T05:28:13.581Z,83.28
2018-11-28T05:30:46.383Z,83.23
2018-11-28T05:33:27.171Z,83.32
2018-11-28T05:36:00.703Z,83.40
2018-11-28T05:38:33.623Z,83.27
2018-11-28T05:41:07.658Z,83.16
2018-11-28T05:43:40.477Z,83.05
2018-11-28T05:46:14.174Z,83.05
2018-11-28T05:48:46.886Z,82.93
2018-11-28T05:51:23.933Z,82.89
2018-11-28T05:53:57.357Z,82.79
2018-11-28T05:56:30.164Z,82.65
2018-11-28T05:59:03.665Z,82.57
2018-11-28T06:01:36.473Z,82.53
2018-11-28T06:04:10.308Z,82.24
2018-11-28T06:06:43.548Z,82.18
2018-11-28T06:09:19.693Z,82.13
2018-11-28T06:11:53.518Z,82.15
2018-11-28T06:14:29.112Z,82.07
2018-11-28T06:17:02.909Z,81.88
2018-11-28T06:19:36.526Z,81.80
2018-11-28T06:22:09.389Z,81.71
2018-11-28T06:24:43.253Z,81.56
2018-11-28T06:27:16.374Z,81.45
2018-11-28T06:29:49.709Z,81.31
2018-11-28T06:32:23.234Z,81.13
2018-11-28T06:34:56.128Z,81.01
2018-11-28T06:37:32.036Z,80.96
2018-11-28T06:40:09.953Z,80.91
2018-11-28T06:42:44.398Z,80.86
2018-11-28T06:45:22.517Z,80.71
2018-11-28T06:47:55.728Z,80.64
2018-11-28T06:50:28.765Z,80.73
2018-11-28T06:53:02.493Z,80.75
2018-11-28T06:55:35.522Z,80.74
2018-11-28T06:58:08.718Z,80.85
2018-11-28T07:00:42.131Z,81.00
2018-11-28T07:03:16.210Z,81.07
2018-11-28T07:05:49.859Z,80.94
2018-11-28T07:08:23.725Z,80.87
2018-11-28T07:10:57.638Z,80.70
2018-11-28T07:13:31.106Z,80.68
2018-11-28T07:16:05.274Z,80.71
2018-11-28T07:19:00.529Z,80.80
2018-11-28T07:21:34.751Z,80.88
2018-11-28T07:24:09.248Z,80.97
2018-11-28T07:26:43.346Z,80.89
2018-11-28T07:29:17.133Z,80.99
2018-11-28T07:31:50.288Z,81.10
2018-11-28T07:34:23.694Z,81.14
2018-11-28T07:36:57.177Z,81.04
2018-11-28T07:39:30.085Z,81.10
2018-11-28T07:42:03.150Z,81.19
2018-11-28T07:44:37.677Z,81.09
2018-11-28T07:47:12.032Z,81.06
2018-11-28T07:49:47.077Z,81.07
2018-11-28T07:52:19.897Z,80.91
2018-11-28T07:54:52.694Z,80.86
2018-11-28T07:57:26.422Z,80.75
2018-11-28T07:59:59.646Z,80.70
2018-11-28T08:02:36.976Z,80.51
2018-11-28T08:05:11.806Z,80.52
2018-11-28T08:07:44.818Z,80.23
2018-11-28T08:10:20.497Z,80.24
2018-11-28T08:12:56.648Z,80.00
2018-11-28T08:15:30.871Z,79.95
2018-11-28T08:18:03.894Z,79.85
2018-11-28T08:20:38.825Z,79.79
2018-11-28T08:23:13.959Z,79.57
2018-11-28T08:25:46.829Z,79.42
2018-11-28T08:28:19.780Z,79.40
2018-11-28T08:30:53.814Z,79.34
2018-11-28T08:33:30.470Z,79.34
2018-11-28T08:36:05.448Z,79.23
2018-11-28T08:38:41.317Z,78.79
2018-11-28T08:41:18.545Z,78.64
2018-11-28T08:43:53.891Z,78.26
2018-11-28T08:46:27.422Z,78.28
2018-11-28T08:49:00.381Z,78.18
2018-11-28T08:51:33.883Z,77.74
2018-11-28T08:54:07.644Z,77.61
2018-11-28T08:56:41.728Z,77.74
2018-11-28T08:59:16.818Z,77.75
2018-11-28T09:01:50.038Z,77.61
2018-11-28T09:04:23.378Z,77.41
2018-11-28T09:06:59.392Z,77.37
2018-11-28T09:09:33.620Z,77.21
2018-11-28T09:12:07.917Z,77.03
2018-11-28T09:14:41.638Z,77.22
2018-11-28T09:17:15.242Z,76.92
2018-11-28T09:19:48.479Z,76.79
2018-11-28T09:22:22.798Z,76.80
2018-11-28T09:24:55.738Z,76.64
2018-11-28T09:27:29.214Z,76.75
2018-11-28T09:30:04.362Z,76.72
2018-11-28T09:32:39.053Z,76.75
2018-11-28T09:35:14.922Z,76.47
2018-11-28T09:37:47.754Z,76.50
2018-11-28T09:40:25.597Z,76.38
2018-11-28T09:43:01.315Z,76.47
2018-11-28T09:45:34.520Z,76.11
2018-11-28T09:48:09.719Z,76.23
2018-11-28T09:50:46.970Z,76.01
2018-11-28T09:53:21.146Z,76.18
2018-11-28T09:55:54.766Z,76.35
2018-11-28T09:58:28.030Z,76.45
2018-11-28T10:01:01.181Z,76.67
2018-11-28T10:03:34.535Z,76.62
2018-11-28T10:06:15.340Z,76.58
2018-11-28T10:08:49.788Z,76.55
2018-11-28T10:11:24.165Z,76.70
2018-11-28T10:13:57.502Z,76.35
2018-11-28T10:16:32.510Z,76.52
2018-11-28T10:19:07.318Z,76.45
2018-11-28T10:21:41.499Z,76.83
2018-11-28T10:24:16.362Z,77.13
2018-11-28T10:26:49.106Z,77.34
2018-11-28T10:29:23.261Z,77.59
2018-11-28T10:31:56.521Z,77.84
2018-11-28T10:34:30.176Z,77.96
2018-11-28T10:37:06.346Z,77.67
2018-11-28T10:39:40.833Z,77.34
2018-11-28T10:42:13.654Z,77.23
2018-11-28T10:44:48.670Z,76.71
2018-11-28T10:47:22.415Z,76.45
2018-11-28T10:49:57.990Z,76.45
2018-11-28T10:52:38.702Z,76.48
2018-11-28T10:55:19.030Z,75.69
2018-11-28T10:57:52.362Z,75.69
2018-11-28T11:00:36.549Z,75.51
2018-11-28T11:03:16.366Z,75.33
2018-11-28T11:05:57.928Z,74.88
2018-11-28T11:08:55.511Z,74.26
2018-11-28T11:11:53.507Z,73.72
2018-11-28T11:14:33.224Z,73.56
2018-11-28T11:17:07.557Z,73.60
2018-11-28T11:19:41.347Z,73.39
2018-11-28T11:22:14.632Z,72.82
2018-11-28T11:24:48.125Z,72.10
2018-11-28T11:27:21.516Z,72.11
2018-11-28T11:29:54.873Z,71.65
2018-11-28T11:32:30.228Z,71.21
2018-11-28T11:35:08.374Z,70.62
2018-11-28T11:37:41.984Z,70.32
2018-11-28T11:40:16.533Z,70.55
2018-11-28T11:42:55.438Z,70.18
2018-11-28T11:45:28.865Z,69.65
2018-11-28T11:48:01.662Z,69.64
2018-11-28T11:50:37.548Z,69.80
2018-11-28T11:53:13.189Z,69.34
2018-11-28T11:55:49.247Z,69.28
2018-11-28T11:58:31.518Z,69.25
2018-11-28T12:01:05.848Z,69.55
2018-11-28T12:03:40.819Z,69.01
2018-11-28T12:06:15.452Z,69.20
2018-11-28T12:08:50.545Z,68.95
2018-11-28T12:11:24.870Z,68.89
2018-11-28T12:13:57.778Z,68.83
2018-11-28T12:16:31.911Z,68.77
2018-11-28T12:19:09.541Z,68.71
2018-11-28T12:21:45.590Z,68.35
2018-11-28T12:24:19.331Z,68.46
2018-11-28T12:26:52.549Z,68.85
2018-11-28T12:29:29.079Z,68.59
2018-11-28T12:32:04.118Z,68.61
2018-11-28T12:34:37.569Z,68.61
2018-11-28T12:37:15.783Z,68.59
2018-11-28T12:39:51.016Z,68.54
2018-11-28T12:42:25.425Z,68.65
2018-11-28T12:45:04.303Z,68.63
2018-11-28T12:47:39.302Z,68.59
2018-11-28T12:50:29.579Z,68.65
2018-11-28T12:53:07.397Z,68.45
2018-11-28T12:55:42.120Z,68.48
2018-11-28T12:58:26.578Z,68.53
2018-11-28T13:01:01.353Z,68.64
2018-11-28T13:03:35.942Z,68.71
2018-11-28T13:06:12.289Z,68.69
2018-11-28T13:08:45.505Z,68.82
2018-11-28T13:11:19.513Z,68.97
2018-11-28T13:14:04.921Z,69.20
2018-11-28T13:16:42.522Z,69.21
2018-11-28T13:19:15.835Z,69.38
2018-11-28T13:21:55.242Z,69.52
2018-11-28T13:24:31.165Z,69.50
2018-11-28T13:27:05.395Z,69.39
2018-11-28T13:29:39.754Z,69.39
2018-11-28T13:32:14.473Z,69.38
2018-11-28T13:34:48.356Z,69.44
2018-11-28T13:37:23.114Z,69.48
2018-11-28T13:39:58.471Z,69.54
2018-11-28T13:42:33.924Z,69.65
2018-11-28T13:45:17.391Z,69.53
2018-11-28T13:47:56.651Z,69.73
2018-11-28T13:50:29.865Z,69.54
2018-11-28T13:53:12.080Z,69.69
2018-11-28T13:59:09.606Z,69.85
2018-11-28T14:01:49.928Z,69.87
2018-11-28T14:04:24.711Z,69.78
2018-11-28T14:07:00.378Z,69.84
2018-11-28T14:09:35.420Z,69.86
2018-11-28T14:12:11.751Z,69.92
2018-11-28T14:14:46.042Z,69.91
2018-11-28T14:17:21.826Z,70.05
2018-11-28T14:19:56.547Z,69.99
2018-11-28T14:22:36.620Z,70.12
2018-11-28T14:25:13.698Z,70.19
2018-11-28T14:27:49.090Z,70.26
2018-11-28T14:30:25.368Z,70.36
2018-11-28T14:33:05.494Z,70.36
2018-11-28T14:35:49.757Z,70.48
2018-11-28T14:38:40.352Z,70.62
2018-11-28T14:41:15.477Z,70.69
2018-11-28T14:43:57.833Z,70.83
2018-11-28T14:46:32.047Z,70.94
2018-11-28T14:49:05.313Z,71.01
2018-11-28T14:51:40.765Z,71.20
2018-11-28T14:54:15.848Z,71.32
2018-11-28T14:56:50.699Z,71.62
2018-11-28T14:59:25.309Z,72.16
2018-11-28T15:01:59.457Z,72.35
2018-11-28T15:04:38.620Z,72.63
2018-11-28T15:07:15.372Z,72.68
2018-11-28T15:10:00.774Z,72.75
2018-11-28T15:12:38.232Z,72.64
2018-11-28T15:15:15.237Z,72.77
2018-11-28T15:17:50.172Z,72.73
2018-11-28T15:20:23.686Z,72.68
2018-11-28T15:22:58.415Z,72.65
2018-11-28T15:25:34.190Z,72.65
2018-11-28T15:28:12.434Z,72.61
2018-11-28T15:30:45.417Z,72.73
2018-11-28T15:33:19.816Z,72.61
2018-11-28T15:35:58.053Z,72.55
2018-11-28T15:38:31.287Z,72.59
2018-11-28T15:41:09.106Z,72.62
2018-11-28T15:43:45.930Z,72.80
2018-11-28T15:46:20.661Z,72.97
2018-11-28T15:48:54.303Z,73.25
2018-11-28T15:51:29.526Z,73.99
2018-11-28T15:54:03.631Z,74.99
2018-11-28T15:56:37.210Z,76.42
2018-11-28T15:59:11.430Z,77.49
2018-11-28T16:01:47.531Z,78.93
2018-11-28T16:04:22.372Z,79.98
2018-11-28T16:06:56.925Z,81.27
2018-11-28T16:09:38.274Z,82.44
2018-11-28T16:12:12.288Z,83.60
2018-11-28T16:14:48.506Z,84.51
2018-11-28T16:17:22.512Z,85.24
2018-11-28T16:19:56.738Z,86.30
2018-11-28T16:22:32.373Z,86.98
2018-11-28T16:25:10.154Z,87.64
2018-11-28T16:27:46.427Z,88.42
2018-11-28T16:30:22.729Z,88.52
2018-11-28T16:32:57.004Z,88.75
2018-11-28T16:35:30.643Z,89.07
2018-11-28T16:38:04.026Z,89.45
2018-11-28T16:40:39.608Z,89.92
2018-11-28T16:43:15.834Z,90.18
2018-11-28T16:45:57.312Z,90.39
2018-11-28T16:48:32.490Z,90.70
2018-11-28T16:51:08.485Z,90.69
2018-11-28T16:53:48.450Z,90.96
2018-11-28T16:56:24.403Z,90.85
2018-11-28T16:59:01.112Z,91.17
2018-11-28T17:01:38.417Z,91.35
2018-11-28T17:04:14.711Z,91.44
2018-11-28T17:06:49.485Z,91.48
2018-11-28T17:09:25.294Z,91.49
2018-11-28T17:12:05.071Z,91.62
2018-11-28T17:14:39.437Z,91.70
2018-11-28T17:17:14.002Z,92.10
2018-11-28T17:19:49.596Z,92.50
2018-11-28T17:22:25.961Z,92.89
2018-11-28T17:25:02.166Z,93.20
2018-11-28T17:27:48.121Z,93.47
2018-11-28T17:30:26.835Z,93.88
2018-11-28T17:33:05.208Z,94.05
2018-11-28T17:35:45.388Z,94.19
2018-11-28T17:38:21.475Z,94.36
2018-11-28T17:40:56.759Z,94.77
2018-11-28T17:43:35.046Z,95.00
2018-11-28T17:46:10.000Z,95.18
2018-11-28T17:48:46.248Z,95.36
2018-11-28T17:51:25.839Z,95.70
2018-11-28T17:54:06.304Z,95.85
2018-11-28T17:56:41.693Z,95.93
2018-11-28T17:59:17.267Z,96.05
2018-11-28T18:01:53.222Z,96.12
2018-11-28T18:04:32.302Z,96.21
2018-11-28T18:07:09.215Z,96.37
2018-11-28T18:09:44.665Z,96.41
2018-11-28T18:12:17.775Z,96.40
2018-11-28T18:14:53.118Z,96.31
2018-11-28T18:17:28.785Z,96.31
2018-11-28T18:20:04.262Z,96.30
2018-11-28T18:22:39.179Z,96.24
2018-11-28T18:25:15.363Z,96.21
2018-11-28T18:27:52.750Z,96.15
2018-11-28T18:30:32.054Z,96.08
2018-11-28T18:33:07.746Z,96.00
2018-11-28T18:35:40.770Z,95.93
2018-11-28T18:38:19.639Z,95.75
2018-11-28T18:40:56.060Z,95.60
2018-11-28T18:43:33.634Z,95.50
2018-11-28T18:46:09.764Z,95.42
2018-11-28T18:48:43.817Z,95.18
2018-11-28T18:51:19.438Z,95.11
2018-11-28T18:53:54.354Z,95.05
2018-11-28T18:56:33.465Z,95.00
2018-11-28T18:59:07.670Z,95.04
2018-11-28T19:01:48.416Z,95.19
2018-11-28T19:04:22.640Z,95.29
2018-11-28T19:06:58.323Z,95.32
2018-11-28T19:09:44.912Z,95.31
2018-11-28T19:12:19.019Z,95.33
2018-11-28T19:14:52.422Z,95.26
2018-11-28T19:17:30.748Z,95.12
2018-11-28T19:20:09.958Z,95.05
2018-11-28T19:22:44.409Z,94.96
2018-11-28T19:25:24.932Z,94.81
2018-11-28T19:28:00.394Z,94.74
2018-11-28T19:30:38.854Z,94.71
2018-11-28T19:33:13.856Z,94.68
2018-11-28T19:35:50.177Z,94.60
2018-11-28T19:38:24.582Z,94.32
2018-11-28T19:41:04.496Z,94.14
2018-11-28T19:43:38.546Z,94.04
2018-11-28T19:46:14.647Z,94.05
2018-11-28T19:48:53.128Z,94.09
2018-11-28T19:51:33.387Z,94.01
2018-11-28T19:54:08.582Z,94.01
2018-11-28T19:56:43.266Z,94.14
2018-11-28T19:59:20.212Z,94.16
2018-11-28T20:01:53.789Z,94.31
2018-11-28T20:04:28.722Z,94.31
2018-11-28T20:07:15.744Z,94.27
2018-11-28T20:09:58.253Z,94.22
2018-11-28T20:12:32.687Z,94.18
2018-11-28T20:15:18.859Z,94.15
2018-11-28T20:18:36.885Z,94.14
2018-11-28T20:23:47.614Z,94.25
2018-11-28T20:26:22.280Z,94.21
2018-11-28T20:28:56.623Z,94.18
2018-11-28T20:31:34.064Z,94.22
2018-11-28T20:34:08.475Z,94.21
2018-11-28T20:36:44.981Z,94.11
2018-11-28T20:39:20.014Z,94.16
2018-11-28T20:41:55.349Z,94.02
2018-11-28T20:44:32.145Z,93.83
2018-11-28T20:47:06.699Z,93.76
2018-11-28T20:49:42.386Z,93.81
2018-11-28T20:52:18.563Z,93.85
2018-11-28T20:54:54.797Z,93.88
2018-11-28T20:57:28.423Z,93.84
2018-11-28T21:00:10.179Z,93.53
2018-11-28T21:02:47.049Z,93.33
2018-11-28T21:05:35.166Z,93.22
2018-11-28T21:08:22.140Z,93.12
2018-11-28T21:14:15.391Z,92.96
2018-11-28T21:16:52.743Z,92.81
2018-11-28T21:19:32.032Z,92.75
2018-11-28T21:22:09.705Z,92.60
2018-11-28T21:24:47.061Z,92.41
2018-11-28T21:27:22.376Z,92.42
2018-11-28T21:29:56.408Z,92.46
2018-11-28T21:32:29.533Z,92.36
2018-11-28T21:35:06.774Z,92.28
2018-11-28T21:37:42.992Z,92.28
2018-11-28T21:40:16.351Z,92.28
2018-11-28T21:42:49.588Z,92.25
2018-11-28T21:45:25.428Z,92.28
2018-11-28T21:48:00.013Z,92.28
2018-11-28T21:50:35.082Z,92.28
2018-11-28T21:53:13.398Z,92.25
2018-11-28T21:55:47.645Z,92.25
2018-11-28T21:58:23.575Z,92.32
2018-11-28T22:00:57.492Z,92.40
2018-11-28T22:03:32.618Z,92.40
2018-11-28T22:06:06.860Z,92.32
2018-11-28T22:08:41.208Z,92.29
2018-11-28T22:11:14.760Z,92.27
2018-11-28T22:13:48.326Z,92.29
2018-11-28T22:16:22.284Z,92.24
2018-11-28T22:18:55.257Z,92.08
2018-11-28T22:21:29.698Z,91.93
2018-11-28T22:24:03.271Z,91.83
2018-11-28T22:26:36.248Z,91.78
2018-11-28T22:29:09.898Z,91.76
2018-11-28T22:31:42.999Z,91.70
2018-11-28T22:34:15.996Z,91.72
2018-11-28T22:36:50.389Z,91.73
2018-11-28T22:39:23.439Z,91.64
2018-11-28T22:42:01.735Z,91.67
2018-11-28T22:44:36.835Z,91.65
2018-11-28T22:47:10.870Z,91.57
2018-11-28T22:49:44.416Z,91.45
2018-11-28T22:52:18.306Z,91.45
2018-11-28T22:54:51.654Z,91.41
2018-11-28T22:57:25.137Z,91.35
2018-11-28T22:59:58.447Z,91.26
2018-11-28T23:02:51.049Z,91.27
2018-11-28T23:05:30.517Z,91.33
2018-11-28T23:08:07.142Z,91.25
2018-11-28T23:10:40.670Z,91.05
2018-11-28T23:13:15.604Z,91.03
2018-11-28T23:15:48.701Z,90.95
2018-11-28T23:18:22.641Z,90.88
2018-11-28T23:20:55.617Z,90.81
2018-11-28T23:23:29.391Z,90.76
2018-11-28T23:26:02.889Z,90.65
2018-11-28T23:28:35.845Z,90.66
2018-11-28T23:31:08.857Z,90.62
2018-11-28T23:33:43.076Z,90.69
2018-11-28T23:36:18.426Z,90.62
2018-11-28T23:38:51.685Z,90.61
2018-11-28T23:41:25.399Z,90.63
2018-11-28T23:43:58.574Z,90.65
2018-11-28T23:46:31.585Z,90.69
2018-11-28T23:49:05.258Z,90.59
2018-11-28T23:51:38.139Z,90.43
2018-11-28T23:54:11.956Z,90.34
2018-11-28T23:56:45.621Z,90.22
2018-11-28T23:59:18.503Z,89.93
